^^
Grace C. Lehan Memorial Weather Station Historical Data
Daily Summary for January 22, 2021 Units:  Metric    English   Both
Daily Weekly Monthly Yearly
  High: Low: Average:
Temperature: 24.4 °C 20.6 °C 22.6 °C
Dew Point: 22.5 °C 20.1 °C 21.6 °C
Humidity: 97% 88.9% 94%
Wind Speed: 20.4km/h 0km/h 4.2km/h
Wind Gust: 48.3km/h - -
Wind- - West
Pressure: 1011.4 hPa 999.2 hPa -
Precipitation: 57.91 mm    
 
 
Tabular Data for January 22, 2021
Time Temperature Dew Point Pressure Wind Wind Speed Wind Gust Humidity Rainfall Rate (Hourly) solar
00:04 24.4 °C 22.4 °C 1011.4 hPa Calm   6.4 km/h 88.9% 0 mm 0 W/m2
00:09 24.3 °C 22.4 °C 1011.4 hPa Calm   1.6 km/h 89% 0 mm 0 W/m2
00:14 24.3 °C 22.5 °C 1011.4 hPa Calm   1.6 km/h 89.7% 0 mm 0 W/m2
00:19 24.3 °C 22.5 °C 1011.4 hPa ESE 0.2 km/h 3.2 km/h 90% 0 mm 0 W/m2
00:24 24.2 °C 22.5 °C 1011.4 hPa Calm   3.2 km/h 90% 0 mm 0 W/m2
00:29 24.2 °C 22.4 °C 1011.1 hPa Calm   3.2 km/h 90% 0 mm 0 W/m2
00:34 24.1 °C 22.4 °C 1011.1 hPa Calm   3.2 km/h 90% 0 mm 0 W/m2
00:39 24.1 °C 22.3 °C 1011.1 hPa Calm   1.6 km/h 90% 0 mm 0 W/m2
00:44 24 °C 22.3 °C 1011.1 hPa Calm   1.6 km/h 90% 0 mm 0 W/m2
00:49 23.9 °C 22.3 °C 1011.1 hPa ESE 0.2 km/h 3.2 km/h 90.1% 0 mm 0 W/m2
00:54 23.9 °C 22.4 °C 1011.1 hPa Calm   3.2 km/h 91% 0 mm 0 W/m2
00:59 23.9 °C 22.3 °C 1011.1 hPa Calm   3.2 km/h 91% 0 mm 0 W/m2
01:04 23.8 °C 22.3 °C 1010.7 hPa Calm   3.2 km/h 91% 0 mm 0 W/m2
01:09 23.8 °C 22.2 °C 1010.7 hPa Calm     91% 0 mm 0 W/m2
01:14 23.8 °C 22.2 °C 1010.7 hPa Calm     91% 0 mm 0 W/m2
01:19 23.7 °C 22.2 °C 1010.7 hPa Calm   3.2 km/h 91% 0 mm 0 W/m2
01:24 23.7 °C 22.1 °C 1010.7 hPa Calm   3.2 km/h 91% 0 mm 0 W/m2
01:29 23.6 °C 22.1 °C 1010.7 hPa Calm   3.2 km/h 91% 0 mm 0 W/m2
01:34 23.6 °C 22.1 °C 1010.7 hPa ESE 0.3 km/h 3.2 km/h 91% 0 mm 0 W/m2
01:39 23.6 °C 22.2 °C 1010.7 hPa ESE 0.2 km/h 3.2 km/h 91.9% 0 mm 0 W/m2
01:44 23.5 °C 22.1 °C 1010.7 hPa ESE 0.2 km/h 3.2 km/h 92% 0 mm 0 W/m2
01:49 23.5 °C 22.1 °C 1010.7 hPa Calm   3.2 km/h 92% 0 mm 0 W/m2
01:54 23.5 °C 22.1 °C 1010.7 hPa Calm   3.2 km/h 92% 0 mm 0 W/m2
01:59 23.4 °C 22.1 °C 1010.7 hPa Calm   3.2 km/h 92% 0 mm 0 W/m2
02:04 23.4 °C 22.1 °C 1010.7 hPa Calm   3.2 km/h 92% 0 mm 0 W/m2
02:09 23.4 °C 22.2 °C 1010.7 hPa Calm   1.6 km/h 92.8% 0 mm 0 W/m2
02:14 23.5 °C 22.3 °C 1010.7 hPa Calm   1.6 km/h 93% 0 mm 0 W/m2
02:19 23.5 °C 22.3 °C 1010.7 hPa Calm   1.6 km/h 93% 0 mm 0 W/m2
02:24 23.5 °C 22.3 °C 1010.7 hPa Calm   1.6 km/h 93% 0 mm 0 W/m2
02:29 23.5 °C 22.3 °C 1010.7 hPa Calm   1.6 km/h 93% 0 mm 0 W/m2
02:34 23.5 °C 22.3 °C 1010.7 hPa Calm   1.6 km/h 93% 0 mm 0 W/m2
02:39 23.5 °C 22.3 °C 1010.7 hPa Calm   1.6 km/h 93% 0 mm 0 W/m2
02:44 23.5 °C 22.3 °C 1010.7 hPa Calm   1.6 km/h 93% 0 mm 0 W/m2
02:49 23.5 °C 22.3 °C 1010.7 hPa ESE 0.3 km/h 4.8 km/h 93% 0 mm 0 W/m2
02:54 23.6 °C 22.2 °C 1010.7 hPa East 0.3 km/h 4.8 km/h 92.1% 0 mm 0 W/m2
02:59 23.6 °C 22.2 °C 1010.7 hPa NNW 0.6 km/h 6.4 km/h 92% 0 mm 0 W/m2
03:04 23.6 °C 22.2 °C 1010.7 hPa NNE 0.3 km/h 6.4 km/h 92% 0 mm 0 W/m2
03:09 23.6 °C 22.2 °C 1010.7 hPa NE 0.3 km/h 4.8 km/h 92% 0 mm 0 W/m2
03:14 23.6 °C 22.2 °C 1010.4 hPa NE 0.2 km/h 4.8 km/h 92% 0 mm 0 W/m2
03:19 23.6 °C 22.2 °C 1010.4 hPa Calm   4.8 km/h 92% 0 mm 0 W/m2
03:24 23.6 °C 22.2 °C 1010.4 hPa Calm   4.8 km/h 92% 0 mm 0 W/m2
03:29 23.6 °C 22.2 °C 1010.4 hPa Calm   4.8 km/h 92% 0 mm 0 W/m2
03:34 23.6 °C 22.2 °C 1010.4 hPa Calm   4.8 km/h 92% 0 mm 0 W/m2
03:39 23.6 °C 22.2 °C 1010 hPa Calm   1.6 km/h 92% 0 mm 0 W/m2
03:44 23.6 °C 22.2 °C 1010 hPa Calm   1.6 km/h 92% 0 mm 0 W/m2
03:49 23.6 °C 22.2 °C 1010 hPa NNE 0.2 km/h 4.8 km/h 92% 0 mm 0 W/m2
03:54 23.6 °C 22.2 °C 1010 hPa North 0.6 km/h 8 km/h 92% 0 mm 0 W/m2
03:59 23.6 °C 22.2 °C 1010 hPa NE 0.2 km/h 8 km/h 92% 0 mm 0 W/m2
04:09 23.6 °C 22.2 °C 1009.7 hPa Calm   3.2 km/h 92% 0 mm 0 W/m2
04:14 23.6 °C 22.2 °C 1009.7 hPa NNW 0.3 km/h 8 km/h 92% 0 mm 0 W/m2
04:19 23.6 °C 22.2 °C 1009.7 hPa NW 0.6 km/h 8 km/h 92% 0 mm 0 W/m2
04:24 23.7 °C 22.3 °C 1009.7 hPa NW 0.2 km/h 8 km/h 92% 0 mm 0 W/m2
04:29 23.7 °C 22.3 °C 1009.7 hPa Calm   8 km/h 92% 0 mm 0 W/m2
04:34 23.7 °C 22.3 °C 1009.7 hPa NE 0.2 km/h 8 km/h 92% 0 mm 0 W/m2
04:39 23.7 °C 22.3 °C 1009.7 hPa NE 0.3 km/h 4.8 km/h 92% 0 mm 0 W/m2
04:44 23.7 °C 22.3 °C 1009.7 hPa NNW 1.1 km/h 9.7 km/h 91.8% 0 mm 0 W/m2
04:49 23.7 °C 22.2 °C 1009.4 hPa NNW 0.2 km/h 9.7 km/h 91% 0 mm 0 W/m2
04:54 23.8 °C 22.2 °C 1009.4 hPa NE 0.8 km/h 9.7 km/h 91% 0 mm 0 W/m2
04:59 23.8 °C 22.2 °C 1009.4 hPa NE 0.2 km/h 9.7 km/h 91% 0 mm 0 W/m2
05:04 23.8 °C 22.2 °C 1009.4 hPa NE 0.2 km/h 9.7 km/h 91% 0 mm 0 W/m2
05:09 23.8 °C 22.2 °C 1009.4 hPa NE 1.6 km/h 9.7 km/h 91% 0 mm 0 W/m2
05:14 23.8 °C 22.2 °C 1009.4 hPa NE 0.2 km/h 9.7 km/h 91% 0 mm 0 W/m2
05:19 23.8 °C 22.3 °C 1009.4 hPa NE 1 km/h 11.3 km/h 91% 0 mm 0 W/m2
05:24 23.8 °C 22.2 °C 1009.4 hPa NNW 1.6 km/h 11.3 km/h 90.3% 0 mm 0 W/m2
05:29 23.8 °C 22.1 °C 1009.4 hPa North 2.3 km/h 14.5 km/h 90% 0 mm 0 W/m2
05:34 23.8 °C 22.1 °C 1009.4 hPa NE 1.8 km/h 14.5 km/h 90% 0 mm 0 W/m2
05:39 23.8 °C 22.1 °C 1009.4 hPa ENE 2.6 km/h 14.5 km/h 90% 0 mm 0 W/m2
05:44 23.9 °C 22.1 °C 1009.4 hPa NE 3.1 km/h 19.3 km/h 90% 0 mm 0 W/m2
05:49 23.9 °C 22.2 °C 1009 hPa NE 1.6 km/h 19.3 km/h 90% 0 mm 0 W/m2
05:54 23.9 °C 21.9 °C 1008.7 hPa NE 0.6 km/h 19.3 km/h 89.1% 0 mm 0 W/m2
05:59 23.8 °C 21.9 °C 1008.7 hPa ENE 1.8 km/h 19.3 km/h 89% 0 mm 0 W/m2
06:04 23.8 °C 21.9 °C 1009 hPa NE 0.5 km/h 19.3 km/h 89% 0 mm 0 W/m2
06:09 23.8 °C 22 °C 1009 hPa NNW 1.1 km/h 9.7 km/h 89.4% 0 mm 0 W/m2
06:14 23.8 °C 21.9 °C 1008.7 hPa North 3.7 km/h 19.3 km/h 89.3% 0 mm 0 W/m2
06:19 23.7 °C 21.8 °C 1008.7 hPa NW 3.9 km/h 19.3 km/h 89% 0 mm 0 W/m2
06:24 23.7 °C 21.8 °C 1008.7 hPa NNW 3.9 km/h 22.5 km/h 89% 0 mm 5 W/m2
06:29 23.7 °C 21.8 °C 1008.7 hPa NNW 4.2 km/h 22.5 km/h 89% 0 mm 5 W/m2
06:34 23.7 °C 21.7 °C 1009 hPa NNW 1.8 km/h 22.5 km/h 89% 0 mm 5 W/m2
06:39 23.6 °C 21.9 °C 1009 hPa NNW 2.4 km/h 11.3 km/h 90% 0 mm 9 W/m2
06:44 23.6 °C 21.8 °C 1008.7 hPa NW 3.1 km/h 16.1 km/h 90% 0 mm 12 W/m2
06:49 23.5 °C 21.8 °C 1008.7 hPa NNW 2.4 km/h 16.1 km/h 90.2% 0 mm 12 W/m2
06:54 23.4 °C 21.8 °C 1008.4 hPa NNW 1.8 km/h 16.1 km/h 91% 0 mm 11 W/m2
06:59 23.3 °C 21.8 °C 1008.7 hPa NNE 1.1 km/h 16.1 km/h 91% 0.25 mm 12 W/m2
07:04 23.3 °C 21.7 °C 1008.7 hPa NNW 3.5 km/h 16.1 km/h 91% 0.25 mm 14 W/m2
07:09 23.3 °C 21.7 °C 1008.4 hPa NNW 6 km/h 24.1 km/h 91% 0.25 mm 25 W/m2
07:14 23.2 °C 21.7 °C 1008.4 hPa North 3.1 km/h 24.1 km/h 91% 0.25 mm 25 W/m2
07:19 23.2 °C 21.8 °C 1008.4 hPa NNW 2.9 km/h 24.1 km/h 91.8% 0.25 mm 23 W/m2
07:24 23.2 °C 21.8 °C 1008.4 hPa North 1.4 km/h 24.1 km/h 91.6% 0.25 mm 21 W/m2
07:29 23.2 °C 21.8 °C 1008.4 hPa NW 1.6 km/h 24.1 km/h 91.8% 0.25 mm 19 W/m2
07:34 23.2 °C 21.7 °C 1008.4 hPa NNW 1.8 km/h 24.1 km/h 91% 0.25 mm 18 W/m2
07:39 23.2 °C 21.7 °C 1008.4 hPa North 3.9 km/h 20.9 km/h 91% 0.25 mm 18 W/m2
07:44 23.2 °C 21.7 °C 1008.4 hPa NNW 6.3 km/h 24.1 km/h 91% 0.25 mm 18 W/m2
07:49 23.2 °C 21.6 °C 1008.4 hPa NNW 4.7 km/h 24.1 km/h 91% 0.25 mm 18 W/m2
07:54 23.2 °C 21.6 °C 1008 hPa NW 4 km/h 24.1 km/h 91% 0.51 mm 16 W/m2
07:59 23.1 °C 21.6 °C 1008 hPa NNW 4.3 km/h 24.1 km/h 91% 0.51 mm 16 W/m2
08:00 23.1 °C 21.6 °C 1008 hPa NNW 8 km/h 24.1 km/h 91% 0.51 mm 12 W/m2
08:09 23.1 °C 21.7 °C 1008 hPa NNW 5.5 km/h 17.7 km/h 92% 1.27 mm 39 W/m2
08:14 22.9 °C 21.6 °C 1008 hPa NW 1.4 km/h 17.7 km/h 92% 1.52 mm 39 W/m2
08:19 22.9 °C 21.5 °C 1008 hPa NNW 8.7 km/h 24.1 km/h 92% 1.52 mm 14 W/m2
08:24 22.8 °C 21.4 °C 1007.7 hPa North 4.2 km/h 24.1 km/h 92% 1.78 mm 11 W/m2
08:29 22.7 °C 21.5 °C 1007.7 hPa NNW 3.5 km/h 24.1 km/h 92.9% 2.54 mm 12 W/m2
08:34 22.6 °C 21.4 °C 1007.7 hPa NW 3.9 km/h 24.1 km/h 93% 2.54 mm 12 W/m2
08:39 22.5 °C 21.3 °C 1007.7 hPa North 3.4 km/h 22.5 km/h 93% 2.79 mm 19 W/m2
08:44 22.4 °C 21.3 °C 1007.7 hPa NW 4.8 km/h 27.4 km/h 93% 3.3 mm 23 W/m2
08:49 22.4 °C 21.3 °C 1007.7 hPa NNW 5.6 km/h 27.4 km/h 93.1% 3.3 mm 30 W/m2
08:54 22.3 °C 21.3 °C 1007.7 hPa NW 6.3 km/h 27.4 km/h 94% 3.81 mm 47 W/m2
08:59 22.3 °C 21.3 °C 1007.3 hPa NNW 6.1 km/h 27.4 km/h 94% 3.81 mm 46 W/m2
09:04 22.3 °C 21.3 °C 1007.3 hPa NNW 3.9 km/h 27.4 km/h 94% 4.32 mm 65 W/m2
09:09 22.3 °C 21.3 °C 1007.7 hPa NNW 2.7 km/h 16.1 km/h 94% 4.83 mm 113 W/m2
09:14 22.3 °C 21.3 °C 1007.3 hPa North 4.7 km/h 22.5 km/h 94% 5.08 mm 141 W/m2
09:19 22.4 °C 21.4 °C 1007.3 hPa NNW 3.7 km/h 22.5 km/h 94% 5.08 mm 109 W/m2
09:24 22.4 °C 21.3 °C 1007.3 hPa NW 4 km/h 22.5 km/h 94% 5.33 mm 79 W/m2
09:29 22.3 °C 21.3 °C 1007.3 hPa NW 7.4 km/h 24.1 km/h 94% 5.33 mm 142 W/m2
09:34 22.3 °C 21.5 °C 1007 hPa NNW 4.7 km/h 24.1 km/h 94.9% 5.33 mm 142 W/m2
09:39 22.4 °C 21.6 °C 1007 hPa NNW 6.1 km/h 25.7 km/h 95% 3.05 mm 139 W/m2
09:44 22.4 °C 21.6 °C 1007 hPa NW 10.5 km/h 29 km/h 95% 3.05 mm 234 W/m2
09:49 22.4 °C 21.6 °C 1006.7 hPa NNW 8.4 km/h 29 km/h 95% 3.3 mm 213 W/m2
09:54 22.4 °C 21.6 °C 1006.7 hPa NW 8.4 km/h 29 km/h 95% 3.3 mm 144 W/m2
09:59 22.5 °C 21.7 °C 1006.7 hPa NNW 5.5 km/h 29 km/h 95% 3.3 mm 202 W/m2
10:04 22.6 °C 21.7 °C 1006.7 hPa NNW 11.7 km/h 29 km/h 95% 3.3 mm 167 W/m2
10:09 22.5 °C 21.6 °C 1006.7 hPa NW 9 km/h 27.4 km/h 94.7% 2.03 mm 167 W/m2
10:14 22.5 °C 21.5 °C 1006.7 hPa NW 9.3 km/h 30.6 km/h 94.2% 2.03 mm 104 W/m2
10:19 22.4 °C 21.4 °C 1006.3 hPa NNW 7.4 km/h 30.6 km/h 94% 2.03 mm 169 W/m2
10:24 22.5 °C 21.4 °C 1006.3 hPa NNW 5.8 km/h 30.6 km/h 94% 2.03 mm 192 W/m2
10:29 22.6 °C 21.6 °C 1006 hPa NNW 8.4 km/h 32.2 km/h 94% 2.03 mm 125 W/m2
10:34 22.5 °C 21.5 °C 1005.6 hPa NW 11.1 km/h 32.2 km/h 94% 2.03 mm 123 W/m2
10:39 22.5 °C 21.5 °C 1005.6 hPa NW 13.4 km/h 32.2 km/h 94% 0.25 mm 88 W/m2
10:44 22.4 °C 21.4 °C 1005.6 hPa NNW 6.9 km/h 32.2 km/h 94% 0.25 mm 51 W/m2
10:49 22.4 °C 21.4 °C 1005.6 hPa NNW 8.5 km/h 38.6 km/h 94% 0.25 mm 42 W/m2
10:54 22.4 °C 21.3 °C 1005.3 hPa NW 13.8 km/h 38.6 km/h 93.8% 0.25 mm 37 W/m2
10:59 22.3 °C 21.2 °C 1005.6 hPa NNW 7.4 km/h 38.6 km/h 93% 0.25 mm 40 W/m2
11:04 22.3 °C 21.2 °C 1005.3 hPa NNW 11.3 km/h 38.6 km/h 93% 0.25 mm 40 W/m2
11:09 22.4 °C 21.2 °C 1005.3 hPa NNW 12.4 km/h 37 km/h 93% 0 mm 28 W/m2
11:14 22.3 °C 21.2 °C 1005.3 hPa NNW 10 km/h 37 km/h 93% 0.25 mm 40 W/m2
11:19 22.3 °C 21.2 °C 1005.3 hPa NNW 9.7 km/h 37 km/h 93.3% 0.51 mm 35 W/m2
11:24 22.3 °C 21.2 °C 1005.3 hPa NNW 6.8 km/h 37 km/h 93.6% 1.02 mm 30 W/m2
11:29 22.2 °C 21.2 °C 1005.3 hPa NNW 8.2 km/h 37 km/h 93.6% 1.27 mm 19 W/m2
11:34 22.2 °C 21.2 °C 1005 hPa NNW 7.4 km/h 37 km/h 94% 2.03 mm 33 W/m2
11:39 22.2 °C 21.2 °C 1005 hPa NNW 9.8 km/h 40.2 km/h 94% 2.79 mm 37 W/m2
11:44 22.1 °C 21.1 °C 1005 hPa NNW 6.3 km/h 40.2 km/h 94% 3.3 mm 40 W/m2
11:49 22.1 °C 21.1 °C 1005 hPa NNW 7.1 km/h 40.2 km/h 94% 3.81 mm 47 W/m2
11:54 22.1 °C 21.1 °C 1004.6 hPa NW 8.7 km/h 40.2 km/h 94% 4.32 mm 51 W/m2
11:59 22.1 °C 21.1 °C 1004.6 hPa NW 8.4 km/h 40.2 km/h 94.1% 5.08 mm 40 W/m2
12:00 22.1 °C 21.3 °C 1004.3 hPa NW 3.2 km/h 40.2 km/h 95% 5.33 mm 30 W/m2
12:09 22.1 °C 21.2 °C 1004.3 hPa NW 9.3 km/h 30.6 km/h 95% 7.37 mm 28 W/m2
12:14 22 °C 21.2 °C 1004.3 hPa NNW 11.7 km/h 33.8 km/h 95% 8.38 mm 23 W/m2
12:19 21.9 °C 21.1 °C 1003.9 hPa NW 11.6 km/h 33.8 km/h 95% 9.14 mm 23 W/m2
12:24 21.9 °C 21.1 °C 1003.9 hPa NNW 10.1 km/h 33.8 km/h 95% 10.16 mm 19 W/m2
12:29 21.9 °C 21.1 °C 1003.9 hPa NW 12.4 km/h 33.8 km/h 95% 11.18 mm 18 W/m2
12:34 21.9 °C 21.1 °C 1003.6 hPa NW 10.3 km/h 33.8 km/h 95% 11.18 mm 19 W/m2
12:39 21.8 °C 21 °C 1003.6 hPa NW 13.5 km/h 33.8 km/h 95% 11.18 mm 18 W/m2
12:44 21.8 °C 21 °C 1003.3 hPa NW 13.5 km/h 33.8 km/h 95% 11.94 mm 19 W/m2
12:49 21.8 °C 21 °C 1003.3 hPa NNW 12.4 km/h 33.8 km/h 95% 12.19 mm 19 W/m2
12:54 21.8 °C 21 °C 1002.9 hPa NW 15.6 km/h 41.8 km/h 95% 12.7 mm 19 W/m2
12:59 21.8 °C 20.9 °C 1002.9 hPa NNW 14.8 km/h 41.8 km/h 95% 13.21 mm 19 W/m2
13:04 21.8 °C 20.9 °C 1002.6 hPa NNW 8 km/h 41.8 km/h 95% 13.21 mm 19 W/m2
13:09 21.8 °C 20.9 °C 1002.6 hPa NNW 8.7 km/h 40.2 km/h 95% 10.41 mm 12 W/m2
13:14 21.8 °C 20.9 °C 1002.6 hPa NNW 15.6 km/h 41.8 km/h 95% 11.18 mm 18 W/m2
13:19 21.8 °C 20.9 °C 1002.6 hPa NNW 12.9 km/h 41.8 km/h 95% 11.94 mm 21 W/m2
13:24 21.8 °C 20.9 °C 1002.3 hPa NNW 12.1 km/h 41.8 km/h 95% 12.95 mm 21 W/m2
13:29 21.8 °C 20.9 °C 1002.3 hPa NW 14 km/h 41.8 km/h 95% 14.48 mm 18 W/m2
13:34 21.8 °C 20.9 °C 1002.3 hPa NW 16.9 km/h 48.3 km/h 95% 14.48 mm 18 W/m2
13:39 21.8 °C 20.9 °C 1002.3 hPa NW 15.8 km/h 48.3 km/h 95% 11.68 mm 19 W/m2
13:44 21.8 °C 20.9 °C 1001.9 hPa NNW 17.2 km/h 48.3 km/h 95% 14.22 mm 23 W/m2
13:49 21.7 °C 20.9 °C 1001.9 hPa NW 13.4 km/h 48.3 km/h 95% 17.02 mm 26 W/m2
13:54 21.7 °C 21.1 °C 1001.6 hPa NNW 16.1 km/h 48.3 km/h 95.9% 19.3 mm 33 W/m2
13:59 21.7 °C 21.1 °C 1001.6 hPa NW 18 km/h 48.3 km/h 96% 20.32 mm 53 W/m2
14:04 21.8 °C 21.1 °C 1001.2 hPa NNW 14.8 km/h 48.3 km/h 96% 20.32 mm 49 W/m2
14:09 21.8 °C 21.1 °C 1001.2 hPa NW 15.9 km/h 41.8 km/h 96% 18.29 mm 40 W/m2
14:14 21.8 °C 21.1 °C 1001.2 hPa NNW 20.4 km/h 41.8 km/h 96% 19.05 mm 39 W/m2
14:19 21.8 °C 21.1 °C 1001.2 hPa NW 18.8 km/h 41.8 km/h 96% 19.81 mm 49 W/m2
14:24 21.8 °C 21.1 °C 1001.2 hPa NNW 12.2 km/h 41.8 km/h 96% 20.07 mm 60 W/m2
14:29 21.8 °C 21.1 °C 1000.9 hPa NW 16.3 km/h 41.8 km/h 96% 20.32 mm 74 W/m2
14:34 21.8 °C 21.2 °C 1000.6 hPa NNW 11.3 km/h 41.8 km/h 96% 20.32 mm 79 W/m2
14:39 21.9 °C 21.2 °C 1000.6 hPa NNW 12.2 km/h 40.2 km/h 96% 15.75 mm 84 W/m2
14:44 21.9 °C 21.2 °C 1000.6 hPa NNW 13.5 km/h 40.2 km/h 96% 16.76 mm 102 W/m2
14:49 21.9 °C 21.2 °C 1000.2 hPa NW 16.7 km/h 45.1 km/h 96% 17.27 mm 120 W/m2
14:54 21.9 °C 21.3 °C 1000.2 hPa NW 11.9 km/h 45.1 km/h 96% 17.78 mm 120 W/m2
14:59 21.9 °C 21.3 °C 999.9 hPa NW 10.6 km/h 46.7 km/h 96% 18.54 mm 111 W/m2
15:04 22 °C 21.3 °C 1000.2 hPa NW 14.2 km/h 46.7 km/h 96% 18.54 mm 120 W/m2
15:09 21.9 °C 21.3 °C 1000.2 hPa NNW 15.1 km/h 46.7 km/h 96% 8.64 mm 113 W/m2
15:14 21.9 °C 21.3 °C 999.9 hPa NNW 15.3 km/h 46.7 km/h 96% 9.65 mm 84 W/m2
15:19 21.9 °C 21.2 °C 999.9 hPa NNW 10.6 km/h 46.7 km/h 96% 10.41 mm 65 W/m2
15:24 21.9 °C 21.2 °C 999.9 hPa NW 11.6 km/h 46.7 km/h 96% 11.43 mm 76 W/m2
15:29 21.8 °C 21.2 °C 999.9 hPa NNW 12.1 km/h 46.7 km/h 96% 11.94 mm 49 W/m2
15:34 21.8 °C 21.2 °C 1000.2 hPa NW 10.9 km/h 46.7 km/h 96% 11.94 mm 46 W/m2
15:39 21.8 °C 21.2 °C 999.9 hPa NW 9.2 km/h 41.8 km/h 96% 10.16 mm 39 W/m2
15:44 21.8 °C 21.1 °C 999.9 hPa NNW 11.3 km/h 41.8 km/h 96% 10.92 mm 40 W/m2
15:49 21.8 °C 21.1 °C 999.9 hPa NW 11.3 km/h 41.8 km/h 96% 11.68 mm 58 W/m2
15:54 21.8 °C 21.1 °C 999.9 hPa NNW 8.9 km/h 41.8 km/h 96% 12.45 mm 70 W/m2
15:59 21.8 °C 21.1 °C 999.9 hPa NNW 8.4 km/h 41.8 km/h 96% 13.46 mm 74 W/m2
16:00 21.8 °C 21.1 °C 999.5 hPa NNE 4.8 km/h 41.8 km/h 96% 13.46 mm 69 W/m2
16:09 21.8 °C 21.2 °C 999.5 hPa NE 6.3 km/h 16.1 km/h 96% 10.92 mm 69 W/m2
16:14 21.8 °C 21.2 °C 999.5 hPa NNW 7.7 km/h 27.4 km/h 96% 11.43 mm 76 W/m2
16:19 21.8 °C 21.2 °C 999.5 hPa NW 9.2 km/h 35.4 km/h 96% 11.68 mm 70 W/m2
16:24 21.8 °C 21.1 °C 999.5 hPa NW 8 km/h 35.4 km/h 96% 11.68 mm 70 W/m2
16:29 21.8 °C 21.1 °C 999.5 hPa NW 9.7 km/h 35.4 km/h 96% 11.94 mm 60 W/m2
16:34 21.8 °C 21.1 °C 999.5 hPa NW 6.1 km/h 35.4 km/h 96% 11.94 mm 54 W/m2
16:39 21.8 °C 21.2 °C 999.5 hPa NW 5.3 km/h 19.3 km/h 96% 7.11 mm 54 W/m2
16:44 21.8 °C 21.2 °C 999.5 hPa NW 9.5 km/h 29 km/h 96% 7.37 mm 54 W/m2
16:49 21.8 °C 21.2 °C 999.5 hPa NW 5.6 km/h 29 km/h 96% 7.37 mm 54 W/m2
16:54 21.8 °C 21.2 °C 999.2 hPa NW 5.1 km/h 29 km/h 96% 7.37 mm 54 W/m2
16:59 21.9 °C 21.2 °C 999.2 hPa NW 1.6 km/h 29 km/h 96% 7.37 mm 51 W/m2
17:04 21.9 °C 21.2 °C 999.5 hPa NNW 6.1 km/h 29 km/h 96% 7.37 mm 42 W/m2
17:09 21.9 °C 21.2 °C 999.9 hPa NNW 4.5 km/h 22.5 km/h 96% 2.79 mm 35 W/m2
17:14 21.9 °C 21.2 °C 999.9 hPa NNW 3.9 km/h 24.1 km/h 96% 2.79 mm 30 W/m2
17:19 21.9 °C 21.3 °C 999.9 hPa NW 2.6 km/h 24.1 km/h 96% 3.05 mm 23 W/m2
17:24 21.9 °C 21.3 °C 999.9 hPa NW 5.6 km/h 24.1 km/h 96% 3.05 mm 25 W/m2
17:29 21.9 °C 21.3 °C 999.9 hPa West 1.1 km/h 24.1 km/h 96% 3.05 mm 25 W/m2
17:34 21.9 °C 21.3 °C 999.9 hPa NW 1.4 km/h 24.1 km/h 96% 3.05 mm 23 W/m2
17:39 22 °C 21.3 °C 1000.2 hPa Calm   9.7 km/h 96% 1.02 mm 26 W/m2
17:44 22.1 °C 21.5 °C 1000.2 hPa Calm   9.7 km/h 96.9% 1.02 mm 28 W/m2
17:49 22.1 °C 21.6 °C 1000.2 hPa Calm   9.7 km/h 97% 1.27 mm 44 W/m2
17:54 22.2 °C 21.7 °C 1000.2 hPa Calm   9.7 km/h 97% 1.27 mm 44 W/m2
17:59 22.2 °C 21.7 °C 1000.2 hPa NNW 0.2 km/h 9.7 km/h 97% 1.27 mm 35 W/m2
18:04 22.3 °C 21.8 °C 1000.6 hPa Calm   9.7 km/h 97% 1.27 mm 32 W/m2
18:09 22.3 °C 21.8 °C 1000.6 hPa Calm     97% 0.76 mm 23 W/m2
18:14 22.3 °C 21.8 °C 1000.9 hPa Calm     97% 0.76 mm 21 W/m2
18:19 22.3 °C 21.8 °C 1000.9 hPa Calm     97% 0.76 mm 25 W/m2
18:24 22.3 °C 21.8 °C 1000.9 hPa Calm     97% 0.76 mm 18 W/m2
18:29 22.4 °C 21.9 °C 1000.9 hPa Calm     97% 0.76 mm 21 W/m2
18:34 22.4 °C 21.9 °C 1000.9 hPa Calm     97% 0.76 mm 25 W/m2
18:39 22.4 °C 21.9 °C 1001.2 hPa Calm     97% 0.25 mm 21 W/m2
18:44 22.3 °C 21.7 °C 1001.6 hPa Calm     96.1% 0.25 mm 16 W/m2
18:49 22.3 °C 21.6 °C 1001.2 hPa Calm     96% 0.25 mm 16 W/m2
18:54 22.3 °C 21.6 °C 1001.2 hPa Calm     96% 0.25 mm 16 W/m2
18:59 22.2 °C 21.6 °C 1001.6 hPa Calm     96% 0.25 mm 14 W/m2
19:04 22.2 °C 21.7 °C 1001.6 hPa Calm     96.7% 0.25 mm 12 W/m2
19:09 22.2 °C 21.7 °C 1001.9 hPa Calm     97% 0 mm 5 W/m2
19:14 22.2 °C 21.7 °C 1001.9 hPa Calm     97% 0 mm 5 W/m2
19:19 22.2 °C 21.7 °C 1002.3 hPa Calm     97% 0 mm 0 W/m2
19:24 22.2 °C 21.7 °C 1002.3 hPa Calm     97% 0 mm 0 W/m2
19:29 22.2 °C 21.7 °C 1002.6 hPa Calm     97% 0 mm 0 W/m2
19:34 22.2 °C 21.7 °C 1002.6 hPa Calm     97% 0 mm 0 W/m2
19:39 22.2 °C 21.7 °C 1002.6 hPa Calm     97% 0 mm 0 W/m2
19:44 22.2 °C 21.7 °C 1002.9 hPa Calm     97% 0 mm 0 W/m2
19:49 22.2 °C 21.7 °C 1002.9 hPa Calm     97% 0 mm 0 W/m2
19:54 22.2 °C 21.7 °C 1003.3 hPa Calm     97% 0 mm 0 W/m2
19:59 22.1 °C 21.6 °C 1003.3 hPa Calm     97% 0 mm 0 W/m2
20:00 22.1 °C 21.6 °C 1003.3 hPa Calm     97% 0 mm 0 W/m2
20:09 22.1 °C 21.6 °C 1003.6 hPa Calm     97% 0 mm 0 W/m2
20:14 22.2 °C 21.7 °C 1003.6 hPa Calm     97% 0 mm 0 W/m2
20:19 22.2 °C 21.7 °C 1003.9 hPa NNW 0.2 km/h 3.2 km/h 97% 0 mm 0 W/m2
20:24 22.2 °C 21.7 °C 1003.9 hPa Calm   3.2 km/h 97% 0 mm 0 W/m2
20:29 22.2 °C 21.7 °C 1003.9 hPa Calm   3.2 km/h 97% 0 mm 0 W/m2
20:34 22.2 °C 21.7 °C 1004.3 hPa Calm   3.2 km/h 97% 0 mm 0 W/m2
20:39 22.2 °C 21.7 °C 1004.3 hPa West 0.5 km/h 4.8 km/h 97% 0.25 mm 0 W/m2
20:44 22.2 °C 21.7 °C 1004.3 hPa WSW 0.2 km/h 4.8 km/h 97% 0.25 mm 0 W/m2
20:49 22.2 °C 21.7 °C 1004.6 hPa WSW 0.2 km/h 4.8 km/h 97% 0.25 mm 0 W/m2
20:54 22.2 °C 21.7 °C 1004.6 hPa Calm   4.8 km/h 97% 0.25 mm 0 W/m2
20:59 22.2 °C 21.7 °C 1004.6 hPa Calm   4.8 km/h 97% 0.25 mm 0 W/m2
21:04 22.2 °C 21.7 °C 1005 hPa Calm   4.8 km/h 97% 0.25 mm 0 W/m2
21:09 22.2 °C 21.7 °C 1005 hPa SSW 0.2 km/h 4.8 km/h 97% 0.25 mm 0 W/m2
21:14 22.2 °C 21.7 °C 1005 hPa Calm   4.8 km/h 97% 0.25 mm 0 W/m2
21:19 22.2 °C 21.7 °C 1005.3 hPa SSW 0.5 km/h 6.4 km/h 97% 0.25 mm 0 W/m2
21:24 22.2 °C 21.7 °C 1005.3 hPa Calm   6.4 km/h 97% 0.25 mm 0 W/m2
21:29 22.2 °C 21.7 °C 1005.3 hPa SSW 0.6 km/h 6.4 km/h 97% 0.25 mm 0 W/m2
21:34 22.1 °C 21.6 °C 1005.3 hPa Calm   6.4 km/h 97% 0.25 mm 0 W/m2
21:39 22.1 °C 21.6 °C 1005.6 hPa SSW 0.2 km/h 3.2 km/h 97% 0.25 mm 0 W/m2
21:44 22.1 °C 21.6 °C 1005.6 hPa SSW 0.6 km/h 4.8 km/h 97% 0.25 mm 0 W/m2
21:49 22.1 °C 21.6 °C 1005.6 hPa Calm   4.8 km/h 97% 0.25 mm 0 W/m2
21:54 22.1 °C 21.6 °C 1006 hPa Calm   4.8 km/h 97% 0.25 mm 0 W/m2
21:59 22 °C 21.5 °C 1006 hPa Calm   4.8 km/h 97% 0.25 mm 0 W/m2
22:04 21.9 °C 21.4 °C 1006 hPa Calm   4.8 km/h 97% 0.25 mm 0 W/m2
22:09 21.9 °C 21.4 °C 1006.3 hPa SSW 0.3 km/h 4.8 km/h 97% 0 mm 0 W/m2
22:14 21.9 °C 21.4 °C 1006.3 hPa South 1.8 km/h 9.7 km/h 97% 0 mm 0 W/m2
22:19 21.7 °C 21.2 °C 1006.7 hPa South 0.8 km/h 9.7 km/h 97% 0 mm 0 W/m2
22:24 21.5 °C 21.1 °C 1006.7 hPa South 1 km/h 9.7 km/h 97% 0 mm 0 W/m2
22:29 21.3 °C 20.8 °C 1006.7 hPa South 1.1 km/h 9.7 km/h 97% 0 mm 0 W/m2
22:34 21.2 °C 20.5 °C 1006.7 hPa SW 1.3 km/h 9.7 km/h 96% 0 mm 0 W/m2
22:39 21.1 °C 20.6 °C 1007 hPa SSW 0.6 km/h 6.4 km/h 96.8% 0 mm 0 W/m2
22:44 21 °C 20.5 °C 1007 hPa Calm   6.4 km/h 97% 0 mm 0 W/m2
22:49 20.9 °C 20.4 °C 1007 hPa SSW 0.3 km/h 6.4 km/h 97% 0 mm 0 W/m2
22:54 20.9 °C 20.4 °C 1007.3 hPa SSW 0.2 km/h 6.4 km/h 97% 0 mm 0 W/m2
22:59 20.9 °C 20.2 °C 1007.3 hPa SSW 0.2 km/h 6.4 km/h 96% 0 mm 0 W/m2
23:04 20.8 °C 20.2 °C 1007.3 hPa Calm   6.4 km/h 96% 0 mm 0 W/m2
23:09 20.8 °C 20.1 °C 1007.3 hPa Calm     96.1% 0 mm 0 W/m2
23:14 20.8 °C 20.3 °C 1007.3 hPa Calm     97% 0 mm 0 W/m2
23:19 20.8 °C 20.3 °C 1007.3 hPa Calm     97% 0 mm 0 W/m2
23:24 20.8 °C 20.3 °C 1007.3 hPa Calm     97% 0 mm 0 W/m2
23:29 20.8 °C 20.3 °C 1007.3 hPa Calm     97% 0 mm 0 W/m2
23:34 20.8 °C 20.3 °C 1007.3 hPa Calm     97% 0 mm 0 W/m2
23:39 20.7 °C 20.2 °C 1007.3 hPa Calm     97% 0 mm 0 W/m2
23:44 20.7 °C 20.2 °C 1007.7 hPa Calm     97% 0 mm 0 W/m2
23:49 20.7 °C 20.2 °C 1007.7 hPa Calm     97% 0 mm 0 W/m2
23:54 20.7 °C 20.2 °C 1007.7 hPa Calm     97% 0 mm 0 W/m2
23:59 20.6 °C 20.1 °C 1008 hPa Calm     97% 0 mm 0 W/m2
Hartford County Weather
Compliments of Weather Underground - 2 mb